Aviation Digital Data Service (ADDS)

Output produced by METARs form (2319 UTC 15 February 2019)
found at http://www.aviationweather.gov/metar/data/
 
Forecast for: OOSA (SALALAH , OM)
Text: TAF OOSA 151740Z 1518/1700 VRB03KT 9999 SCT025
Forecast period: 1800 UTC 15 February 2019 to 0500 UTC 16 February 2019
Forecast type: FROM: standard forecast or significant change
Winds: variable direction winds at 3 MPH (3 knots; 1.5 m/s)
Visibility: 6 or more miles 10+ km)
Ceiling: at least 12,000 feet AGL
Clouds: scattered clouds at 2500 feet AGL
Weather: no significant weather forecast for this period
Text: BECMG 1605/1607 14009KT
Forecast period: 0500 UTC 16 February 2019 to 0000 UTC 17 February 2019
Forecast type: BECOMING: Conditions expected to become as follows by 0700 UTC 16 February 2019
Winds: from the SE (140 degrees) at 10 MPH (9 knots; 4.6 m/s)
Visibility: 6 or more miles 10+ km)
Ceiling: at least 12,000 feet AGL
Clouds: scattered clouds at 2500 feet AGL
Weather: no significant weather forecast for this period